PWSweather.com
Personal Weather Stations
Station Observations
KGRPEEBLES
PeeblesGB EH45 9LX

PeeblesGB EH45 9LX

Lat: 55.64096, Lon: -3.170893

Elevation: 517

Station Type: Watson W-8681

Latest ConditionsUpdated 1:15:02 PM GMT Thursday, Nov 14, 2019
Currently Today's Max Today's Min Today's Average
Temperature 41.4°F5.2°C 41.5°F5.3°C 28.8°F-1.8°C 33.7°F0.9°C
Dew Point -11.1°F-23.9°C -10.9°F-23.8°C -20.8°F-29.3°C -17.0°F-27.2°C
Winds 2.9 mph NNW4.7 kmh NNW 3.4 mph -5.5 kmh - - 1.4 mph 2.3 kmh
Wind Gusts 5.4 mph8.7 kmh 6.0 mph9.7 kmh - -
Humidity 10% 10% 10% 10%
Pressure 29.64 in1003.7 mb 29.64 in1003.7 mb 29.35 in993.9 mb -
Hour Temp Dew Point Humidity Winds Wind Gusts Pressure Precip Precip Rate Daily Precip Total
01:15 PM 41.4°F5.2°C -11.1°F-23.9°C 10% 2.9 mph NNW4.7 kmh NNW 5.4 mph8.7 kmh 29.64 in1003.7 mb 0.00 in0.0 mm 0.00 in0.0 mm 0.00 in0.0 mm
01:00 PM 41.2°F5.1°C -11.2°F-24.0°C 10% 2.4 mph SSW3.9 kmh SSW 3.8 mph6.1 kmh 29.64 in1003.7 mb 0.00 in0.0 mm 0.00 in0.0 mm 0.00 in0.0 mm
12:45 PM 41.4°F5.2°C -11.1°F-23.9°C 10% 2.7 mph SW4.3 kmh SW 4.5 mph7.2 kmh 29.63 in1003.4 mb 0.00 in0.0 mm 0.00 in0.0 mm 0.00 in0.0 mm
12:30 PM 41.5°F5.3°C -10.9°F-23.8°C 10% 3.1 mph W5.0 kmh W 4.5 mph7.2 kmh 29.63 in1003.4 mb 0.00 in0.0 mm 0.00 in0.0 mm 0.00 in0.0 mm
12:15 PM 41.0°F5.0°C -11.3°F-24.1°C 10% 2.7 mph WSW4.3 kmh WSW 4.5 mph7.2 kmh 29.63 in1003.4 mb 0.00 in0.0 mm 0.00 in0.0 mm 0.00 in0.0 mm
12:00 PM 38.5°F3.6°C -13.3°F-25.2°C 10% 2.5 mph W4.0 kmh W 3.8 mph6.1 kmh 29.62 in1003.0 mb 0.00 in0.0 mm 0.00 in0.0 mm 0.00 in0.0 mm
11:45 AM 38.7°F3.7°C -13.2°F-25.1°C 10% 2.2 mph SW3.5 kmh SW 3.1 mph5.0 kmh 29.62 in1003.0 mb 0.00 in0.0 mm 0.00 in0.0 mm 0.00 in0.0 mm
11:30 AM 37.6°F3.1°C -14.0°F-25.6°C 10% 2.2 mph W3.5 kmh W 4.5 mph7.2 kmh 29.62 in1003.0 mb 0.00 in0.0 mm 0.00 in0.0 mm 0.00 in0.0 mm
11:15 AM 38.7°F3.7°C -13.2°F-25.1°C 10% 3.1 mph WSW5.0 kmh WSW 5.4 mph8.7 kmh 29.62 in1003.0 mb 0.00 in0.0 mm 0.00 in0.0 mm 0.00 in0.0 mm
11:00 AM 41.0°F5.0°C -11.3°F-24.1°C 10% 2.2 mph WSW3.5 kmh WSW 3.8 mph6.1 kmh 29.61 in1002.7 mb 0.00 in0.0 mm 0.00 in0.0 mm 0.00 in0.0 mm
10:45 AM 38.8°F3.8°C -13.0°F-25.0°C 10% 3.2 mph SSW5.1 kmh SSW 6.0 mph9.7 kmh 29.61 in1002.7 mb 0.00 in0.0 mm 0.00 in0.0 mm 0.00 in0.0 mm
10:30 AM 37.4°F3.0°C -14.1°F-25.6°C 10% 2.8 mph S4.5 kmh S 4.5 mph7.2 kmh 29.61 in1002.7 mb 0.00 in0.0 mm 0.00 in0.0 mm 0.00 in0.0 mm
10:15 AM 36.3°F2.4°C -15.0°F-26.1°C 10% 2.6 mph SSW4.2 kmh SSW 4.5 mph7.2 kmh 29.61 in1002.7 mb 0.00 in0.0 mm 0.00 in0.0 mm 0.00 in0.0 mm
10:00 AM 33.1°F0.6°C -17.5°F-27.5°C 10% 1.8 mph SSW2.9 kmh SSW 3.8 mph6.1 kmh 29.61 in1002.7 mb 0.00 in0.0 mm 0.00 in0.0 mm 0.00 in0.0 mm
09:45 AM 32.7°F0.4°C -17.8°F-27.7°C 10% Calm Calm -- 29.60 in1002.4 mb 0.00 in0.0 mm 0.00 in0.0 mm 0.00 in0.0 mm
09:30 AM 32.4°F0.2°C -18.0°F-27.8°C 10% Calm Calm -- 29.61 in1002.7 mb 0.00 in0.0 mm 0.00 in0.0 mm 0.00 in0.0 mm
09:15 AM 31.8°F-0.1°C -18.5°F-28.1°C 10% 0.3 mph WSW0.5 kmh WSW 1.6 mph2.6 kmh 29.59 in1002.0 mb 0.00 in0.0 mm 0.00 in0.0 mm 0.00 in0.0 mm
09:00 AM 31.1°F-0.5°C -19.0°F-28.3°C 10% 0.7 mph SSE1.1 kmh SSE 1.6 mph2.6 kmh 29.59 in1002.0 mb 0.00 in0.0 mm 0.00 in0.0 mm 0.00 in0.0 mm
08:45 AM 31.1°F-0.5°C -19.0°F-28.3°C 10% 0.1 mph S0.2 kmh S 0.7 mph1.1 kmh 29.58 in1001.7 mb 0.00 in0.0 mm 0.00 in0.0 mm 0.00 in0.0 mm
08:30 AM 31.8°F-0.1°C -18.5°F-28.1°C 10% 0.7 mph SSW1.1 kmh SSW 2.2 mph3.5 kmh 29.59 in1002.0 mb 0.00 in0.0 mm 0.00 in0.0 mm 0.00 in0.0 mm
08:15 AM 31.5°F-0.3°C -18.7°F-28.2°C 10% 0.3 mph N0.5 kmh N 1.6 mph2.6 kmh 29.58 in1001.7 mb 0.00 in0.0 mm 0.00 in0.0 mm 0.00 in0.0 mm
08:00 AM 31.5°F-0.3°C -18.7°F-28.2°C 10% 0.2 mph N0.3 kmh N 1.6 mph2.6 kmh 29.57 in1001.4 mb 0.00 in0.0 mm 0.00 in0.0 mm 0.00 in0.0 mm
07:45 AM 31.6°F-0.2°C -18.6°F-28.1°C 10% 0.6 mph S1.0 kmh S 2.2 mph3.5 kmh 29.56 in1001.0 mb 0.00 in0.0 mm 0.00 in0.0 mm 0.00 in0.0 mm
07:30 AM 32.2°F0.1°C -18.2°F-27.9°C 10% 0.4 mph E0.6 kmh E 1.6 mph2.6 kmh 29.55 in1000.7 mb 0.00 in0.0 mm 0.00 in0.0 mm 0.00 in0.0 mm
07:15 AM 32.9°F0.5°C -17.6°F-27.6°C 10% 1.5 mph S2.4 kmh S 4.5 mph7.2 kmh 29.54 in1000.3 mb 0.00 in0.0 mm 0.00 in0.0 mm 0.00 in0.0 mm
07:00 AM 33.6°F0.9°C -17.1°F-27.3°C 10% 1.4 mph NNW2.3 kmh NNW 3.8 mph6.1 kmh 29.54 in1000.3 mb 0.00 in0.0 mm 0.00 in0.0 mm 0.00 in0.0 mm
06:45 AM 34.0°F1.1°C -16.8°F-27.1°C 10% 1.7 mph NNW2.7 kmh NNW 2.2 mph3.5 kmh 29.53 in1000.0 mb 0.00 in0.0 mm 0.00 in0.0 mm 0.00 in0.0 mm
06:30 AM 34.2°F1.2°C -16.6°F-27.0°C 10% 1.1 mph NE1.8 kmh NE 2.2 mph3.5 kmh 29.52 in999.7 mb 0.00 in0.0 mm 0.00 in0.0 mm 0.00 in0.0 mm
06:15 AM 34.2°F1.2°C -16.6°F-27.0°C 10% 1.9 mph SE3.1 kmh SE 3.8 mph6.1 kmh 29.52 in999.7 mb 0.00 in0.0 mm 0.00 in0.0 mm 0.00 in0.0 mm
06:00 AM 33.4°F0.8°C -17.2°F-27.3°C 10% 1.2 mph S1.9 kmh S 3.8 mph6.1 kmh 29.50 in999.0 mb 0.00 in0.0 mm 0.00 in0.0 mm 0.00 in0.0 mm
05:45 AM 33.8°F1.0°C -16.9°F-27.2°C 10% 2.1 mph S3.4 kmh S 3.8 mph6.1 kmh 29.50 in999.0 mb 0.00 in0.0 mm 0.00 in0.0 mm 0.00 in0.0 mm
05:30 AM 34.2°F1.2°C -16.6°F-27.0°C 10% 1.7 mph SSE2.7 kmh SSE 3.8 mph6.1 kmh 29.49 in998.6 mb 0.00 in0.0 mm 0.00 in0.0 mm 0.00 in0.0 mm
05:15 AM 34.5°F1.4°C -16.4°F-26.9°C 10% 2.7 mph SW4.3 kmh SW 5.4 mph8.7 kmh 29.48 in998.3 mb 0.00 in0.0 mm 0.00 in0.0 mm 0.00 in0.0 mm
05:00 AM 34.5°F1.4°C -16.4°F-26.9°C 10% 2.3 mph SSW3.7 kmh SSW 3.8 mph6.1 kmh 29.47 in998.0 mb 0.00 in0.0 mm 0.00 in0.0 mm 0.00 in0.0 mm
04:45 AM 34.9°F1.6°C -16.1°F-26.7°C 10% 2.0 mph N3.2 kmh N 4.5 mph7.2 kmh 29.47 in998.0 mb 0.00 in0.0 mm 0.00 in0.0 mm 0.00 in0.0 mm
04:30 AM 34.9°F1.6°C -16.1°F-26.7°C 10% 3.4 mph N5.5 kmh N 5.4 mph8.7 kmh 29.46 in997.6 mb 0.00 in0.0 mm 0.00 in0.0 mm 0.00 in0.0 mm
04:15 AM 34.2°F1.2°C -16.6°F-27.0°C 10% 1.4 mph N2.3 kmh N 6.0 mph9.7 kmh 29.45 in997.3 mb 0.00 in0.0 mm 0.00 in0.0 mm 0.00 in0.0 mm
04:00 AM 33.6°F0.9°C -17.1°F-27.3°C 10% 1.7 mph N2.7 kmh N 6.0 mph9.7 kmh 29.45 in997.3 mb 0.00 in0.0 mm 0.00 in0.0 mm 0.00 in0.0 mm
03:45 AM 32.4°F0.2°C -18.0°F-27.8°C 10% 1.3 mph S2.1 kmh S 2.2 mph3.5 kmh 29.44 in997.0 mb 0.00 in0.0 mm 0.00 in0.0 mm 0.00 in0.0 mm
03:30 AM 31.8°F-0.1°C -18.5°F-28.1°C 10% 1.1 mph S1.8 kmh S 3.1 mph5.0 kmh 29.43 in996.6 mb 0.00 in0.0 mm 0.00 in0.0 mm 0.00 in0.0 mm
03:15 AM 30.7°F-0.7°C -19.3°F-28.5°C 10% 0.9 mph WSW1.4 kmh WSW 2.2 mph3.5 kmh 29.42 in996.3 mb 0.00 in0.0 mm 0.00 in0.0 mm 0.00 in0.0 mm
03:00 AM 30.4°F-0.9°C -19.6°F-28.7°C 10% 1.4 mph S2.3 kmh S 3.1 mph5.0 kmh 29.42 in996.3 mb 0.00 in0.0 mm 0.00 in0.0 mm 0.00 in0.0 mm
02:45 AM 29.8°F-1.2°C -20.0°F-28.9°C 10% 0.7 mph N1.1 kmh N 3.1 mph5.0 kmh 29.41 in995.9 mb 0.00 in0.0 mm 0.00 in0.0 mm 0.00 in0.0 mm
02:30 AM 29.7°F-1.3°C -20.1°F-28.9°C 10% 0.4 mph SE0.6 kmh SE 1.6 mph2.6 kmh 29.41 in995.9 mb 0.00 in0.0 mm 0.00 in0.0 mm 0.00 in0.0 mm
02:15 AM 29.3°F-1.5°C -20.4°F-29.1°C 10% 0.1 mph SSE0.2 kmh SSE 0.7 mph1.1 kmh 29.40 in995.6 mb 0.00 in0.0 mm 0.00 in0.0 mm 0.00 in0.0 mm
02:00 AM 29.3°F-1.5°C -20.4°F-29.1°C 10% 0.2 mph S0.3 kmh S 1.6 mph2.6 kmh 29.39 in995.3 mb 0.00 in0.0 mm 0.00 in0.0 mm 0.00 in0.0 mm
01:45 AM 29.7°F-1.3°C -20.1°F-28.9°C 10% 1.2 mph SSE1.9 kmh SSE 2.2 mph3.5 kmh 29.39 in995.3 mb 0.00 in0.0 mm 0.00 in0.0 mm 0.00 in0.0 mm
01:30 AM 29.7°F-1.3°C -20.1°F-28.9°C 10% 1.0 mph N1.6 kmh N 3.1 mph5.0 kmh 29.39 in995.3 mb 0.00 in0.0 mm 0.00 in0.0 mm 0.00 in0.0 mm
01:15 AM 29.5°F-1.4°C -20.3°F-29.1°C 10% Calm Calm 0.7 mph1.1 kmh 29.38 in994.9 mb 0.00 in0.0 mm 0.00 in0.0 mm 0.00 in0.0 mm
01:00 AM 29.7°F-1.3°C -20.1°F-28.9°C 10% 0.4 mph S0.6 kmh S 1.6 mph2.6 kmh 29.38 in994.9 mb 0.00 in0.0 mm 0.00 in0.0 mm 0.00 in0.0 mm
12:45 AM 29.7°F-1.3°C -20.1°F-28.9°C 10% 0.3 mph NNE0.5 kmh NNE 1.6 mph2.6 kmh 29.37 in994.6 mb 0.00 in0.0 mm 0.00 in0.0 mm 0.00 in0.0 mm
12:30 AM 29.1°F-1.6°C -20.6°F-29.2°C 10% 0.4 mph S0.6 kmh S 1.6 mph2.6 kmh 29.37 in994.6 mb 0.00 in0.0 mm 0.00 in0.0 mm 0.00 in0.0 mm
12:15 AM 28.8°F-1.8°C -20.8°F-29.3°C 10% 0.7 mph SSE1.1 kmh SSE 3.1 mph5.0 kmh 29.36 in994.2 mb 0.00 in0.0 mm 0.00 in0.0 mm 0.00 in0.0 mm
12:00 AM 28.8°F-1.8°C -20.8°F-29.3°C 10% Calm Calm -- 29.35 in993.9 mb 0.00 in0.0 mm 0.00 in0.0 mm 0.00 in0.0 mm